Aviation Digital Data Service (ADDS)

Output produced by METARs form (0906 UTC 26 July 2014)
found at http://aviationweather.gov/adds/metars/
 
KMSS 260538Z 2606/2706 20007KT P6SM SKC 
     FM261300 23009KT P6SM SCT060 SCT100 
     FM261700 24011KT P6SM SCT060 BKN150 
     FM270100 22007KT P6SM BKN080